createdAt,value
2023-12-31T03:41:58.382Z,5.71
2023-12-31T03:44:25.010Z,5.71
2023-12-31T03:46:51.936Z,5.47
2023-12-31T03:49:18.609Z,5.87
2023-12-31T03:51:45.251Z,5.74
2023-12-31T03:54:11.885Z,5.89
2023-12-31T03:56:38.493Z,5.74
2023-12-31T03:59:05.129Z,5.79
2023-12-31T04:01:31.758Z,5.77
2023-12-31T04:03:58.431Z,5.78
2023-12-31T04:06:25.039Z,5.96
2023-12-31T04:08:51.661Z,5.55
2023-12-31T04:11:18.246Z,5.36
2023-12-31T04:13:44.911Z,5.64
2023-12-31T04:16:11.545Z,5.67
2023-12-31T04:18:38.453Z,5.70
2023-12-31T04:21:05.100Z,6.00
2023-12-31T04:23:31.686Z,6.15
2023-12-31T04:25:58.314Z,6.10
2023-12-31T04:28:24.989Z,6.00
2023-12-31T04:30:51.755Z,6.23
2023-12-31T04:33:18.410Z,6.51
2023-12-31T04:35:51.060Z,5.91
2023-12-31T04:38:18.562Z,5.98
2023-12-31T04:40:45.223Z,6.15
2023-12-31T04:43:11.880Z,6.34
2023-12-31T04:45:38.616Z,6.33
2023-12-31T04:48:05.353Z,6.54
2023-12-31T04:50:32.148Z,6.46
2023-12-31T04:52:58.875Z,6.46
2023-12-31T04:55:25.512Z,6.28
2023-12-31T04:57:52.122Z,6.18
2023-12-31T05:00:18.703Z,6.06
2023-12-31T05:02:45.288Z,6.17
2023-12-31T05:05:11.905Z,6.28
2023-12-31T05:07:38.564Z,6.31
2023-12-31T05:10:05.185Z,6.37
2023-12-31T05:12:31.790Z,6.48
2023-12-31T05:14:58.398Z,6.54
2023-12-31T05:17:25.089Z,5.94
2023-12-31T05:19:51.839Z,6.25
2023-12-31T05:22:18.527Z,6.28
2023-12-31T05:24:45.147Z,6.00
2023-12-31T05:27:11.754Z,5.70
2023-12-31T05:29:38.365Z,5.76
2023-12-31T05:32:04.997Z,6.05
2023-12-31T05:34:31.649Z,5.87
2023-12-31T05:36:58.366Z,6.18
2023-12-31T05:39:24.962Z,5.50
2023-12-31T05:41:51.579Z,5.84
2023-12-31T05:44:18.193Z,5.99
2023-12-31T05:46:44.854Z,6.12
2023-12-31T05:49:11.578Z,6.01
2023-12-31T05:51:38.282Z,6.01
2023-12-31T05:54:04.872Z,6.18
2023-12-31T05:56:31.486Z,6.36
2023-12-31T05:58:58.108Z,6.73
2023-12-31T06:01:24.738Z,6.69
2023-12-31T06:03:51.503Z,6.73
2023-12-31T06:06:18.213Z,6.70
2023-12-31T06:08:44.842Z,6.90
2023-12-31T06:11:11.444Z,6.96
2023-12-31T06:13:38.052Z,6.92
2023-12-31T06:16:04.652Z,7.01
2023-12-31T06:18:31.250Z,7.12
2023-12-31T06:20:57.915Z,7.18
2023-12-31T06:23:24.513Z,7.30
2023-12-31T06:25:51.232Z,7.35
2023-12-31T06:28:17.942Z,7.41
2023-12-31T06:30:44.656Z,7.43
2023-12-31T06:33:11.454Z,7.55
2023-12-31T06:35:38.092Z,7.67
2023-12-31T06:38:04.674Z,7.45
2023-12-31T06:40:31.312Z,7.30
2023-12-31T06:42:57.942Z,7.71
2023-12-31T06:45:24.519Z,7.59
2023-12-31T06:47:51.165Z,7.75
2023-12-31T06:50:17.878Z,7.64
2023-12-31T06:52:44.360Z,7.33
2023-12-31T06:55:10.830Z,7.37
2023-12-31T06:57:37.290Z,7.44
2023-12-31T07:00:03.781Z,7.36
2023-12-31T07:02:30.281Z,7.40
2023-12-31T07:04:56.785Z,7.68
2023-12-31T07:07:23.310Z,7.49
2023-12-31T07:09:49.790Z,7.49
2023-12-31T07:12:16.243Z,7.54
2023-12-31T07:14:42.666Z,7.42
2023-12-31T07:17:09.075Z,7.70
2023-12-31T07:19:35.583Z,7.62
2023-12-31T07:22:02.066Z,7.71
2023-12-31T07:24:28.515Z,7.69
2023-12-31T07:26:54.948Z,7.91
2023-12-31T07:29:21.377Z,7.84
2023-12-31T07:31:47.863Z,7.89
2023-12-31T07:34:14.400Z,7.94
2023-12-31T07:36:40.903Z,7.53
2023-12-31T07:39:07.350Z,7.75
2023-12-31T07:41:33.789Z,7.76
2023-12-31T07:44:00.251Z,7.86
2023-12-31T07:46:26.780Z,7.61
2023-12-31T07:48:53.448Z,7.78
2023-12-31T07:51:20.272Z,7.40
2023-12-31T07:53:46.873Z,7.27
2023-12-31T07:56:13.484Z,7.60
2023-12-31T07:58:40.133Z,7.67
2023-12-31T08:01:06.807Z,7.50
2023-12-31T08:03:33.535Z,7.67
2023-12-31T08:06:00.266Z,7.53
2023-12-31T08:08:26.916Z,7.64
2023-12-31T08:10:53.615Z,7.59
2023-12-31T08:13:20.456Z,7.56
2023-12-31T08:15:47.220Z,7.53
2023-12-31T08:18:14.057Z,7.74
2023-12-31T08:20:40.812Z,7.89
2023-12-31T08:23:07.811Z,8.09
2023-12-31T08:25:34.706Z,8.22
2023-12-31T08:28:01.333Z,8.01
2023-12-31T08:30:27.986Z,7.90
2023-12-31T08:32:54.648Z,8.06
2023-12-31T08:35:21.377Z,8.13
2023-12-31T08:37:48.093Z,8.40
2023-12-31T08:40:14.821Z,8.20
2023-12-31T08:42:41.441Z,8.13
2023-12-31T08:45:08.026Z,8.16
2023-12-31T08:47:34.657Z,8.17
2023-12-31T08:50:01.419Z,8.24
2023-12-31T08:52:28.074Z,7.88
2023-12-31T08:54:54.648Z,7.71
2023-12-31T08:57:21.293Z,7.86
2023-12-31T08:59:47.906Z,8.03
2023-12-31T09:02:14.486Z,8.14
2023-12-31T09:04:41.136Z,8.44
2023-12-31T09:07:08.817Z,8.30
2023-12-31T09:09:35.413Z,8.20
2023-12-31T09:12:02.004Z,8.30
2023-12-31T09:14:28.603Z,7.97
2023-12-31T09:16:55.275Z,8.06
2023-12-31T09:19:21.946Z,8.08
2023-12-31T09:21:48.565Z,7.94
2023-12-31T09:24:15.186Z,8.09
2023-12-31T09:26:41.783Z,8.11
2023-12-31T09:29:08.402Z,8.25
2023-12-31T09:31:34.996Z,8.13
2023-12-31T09:34:01.708Z,8.27
2023-12-31T09:36:28.353Z,8.21
2023-12-31T09:38:54.970Z,8.20
2023-12-31T09:41:21.551Z,8.29
2023-12-31T09:43:48.167Z,8.28
2023-12-31T09:46:14.866Z,8.47
2023-12-31T09:48:41.611Z,8.43
2023-12-31T09:51:08.236Z,8.42
2023-12-31T09:53:34.910Z,8.56
2023-12-31T09:56:01.564Z,8.59
2023-12-31T09:58:28.219Z,8.72
2023-12-31T10:00:54.862Z,8.53
2023-12-31T10:03:21.571Z,8.26
2023-12-31T10:05:48.226Z,8.23
2023-12-31T10:08:14.876Z,8.41
2023-12-31T10:10:41.578Z,8.37
2023-12-31T10:13:08.202Z,8.41
2023-12-31T10:15:34.806Z,8.61
2023-12-31T10:18:03.694Z,8.42
2023-12-31T10:20:31.183Z,8.54
2023-12-31T10:22:57.832Z,8.79
2023-12-31T10:25:24.580Z,8.59
2023-12-31T10:27:51.227Z,8.72
2023-12-31T10:30:17.937Z,8.78
2023-12-31T10:32:44.749Z,8.88
2023-12-31T10:35:11.407Z,8.75
2023-12-31T10:37:38.145Z,8.88
2023-12-31T10:40:04.801Z,8.86
2023-12-31T10:42:31.421Z,8.73
2023-12-31T10:44:57.995Z,8.85
2023-12-31T10:47:24.657Z,8.78
2023-12-31T10:49:51.483Z,8.88
2023-12-31T10:52:18.278Z,8.79
2023-12-31T10:54:44.937Z,8.50
2023-12-31T10:57:11.536Z,8.45
2023-12-31T10:59:38.168Z,8.38
2023-12-31T11:02:04.832Z,8.51
2023-12-31T11:04:31.567Z,8.40
2023-12-31T11:06:58.277Z,8.80
2023-12-31T11:09:24.864Z,8.35
2023-12-31T11:11:51.493Z,8.45
2023-12-31T11:14:18.104Z,8.02
2023-12-31T11:16:44.740Z,8.00
2023-12-31T11:19:11.423Z,7.67
2023-12-31T11:21:38.114Z,7.58
2023-12-31T11:24:04.750Z,7.21
2023-12-31T11:26:31.351Z,7.17
2023-12-31T11:28:57.998Z,5.87
2023-12-31T11:31:24.746Z,3.86
2023-12-31T11:33:51.549Z,2.64
2023-12-31T11:36:18.346Z,2.75
2023-12-31T11:38:44.941Z,2.74
2023-12-31T11:41:11.547Z,3.02
2023-12-31T11:43:38.240Z,2.78
2023-12-31T11:46:04.870Z,2.97
2023-12-31T11:48:31.599Z,2.94
2023-12-31T11:50:58.243Z,2.40
2023-12-31T11:53:24.855Z,2.50
2023-12-31T11:55:51.511Z,2.46
2023-12-31T11:58:18.205Z,2.56
2023-12-31T12:00:44.840Z,2.58
2023-12-31T12:03:11.493Z,2.48
2023-12-31T12:05:38.089Z,2.29
2023-12-31T12:08:04.716Z,2.35
2023-12-31T12:10:31.411Z,2.30
2023-12-31T12:13:00.810Z,2.43
2023-12-31T12:15:27.790Z,2.47
2023-12-31T12:17:54.484Z,2.31
2023-12-31T12:20:21.349Z,2.29
2023-12-31T12:22:48.038Z,2.38
2023-12-31T12:25:14.646Z,2.78
2023-12-31T12:27:41.249Z,3.01
2023-12-31T12:30:07.960Z,2.95
2023-12-31T12:32:34.629Z,2.59
2023-12-31T12:35:01.400Z,2.73
2023-12-31T12:37:28.153Z,3.02
2023-12-31T12:39:54.875Z,2.93
2023-12-31T12:42:21.489Z,2.70
2023-12-31T12:44:48.208Z,2.82
2023-12-31T12:47:14.893Z,2.94
2023-12-31T12:49:41.551Z,2.79
2023-12-31T12:52:08.150Z,2.77
2023-12-31T12:54:34.793Z,2.87
2023-12-31T12:57:01.414Z,2.77
2023-12-31T12:59:27.982Z,2.72
2023-12-31T13:01:54.652Z,2.15
2023-12-31T13:04:21.262Z,2.23
2023-12-31T13:06:47.908Z,2.43
2023-12-31T13:09:14.532Z,2.36
2023-12-31T13:11:41.105Z,2.50
2023-12-31T13:14:07.808Z,2.82
2023-12-31T13:16:40.780Z,2.88
2023-12-31T13:19:14.385Z,2.97
2023-12-31T13:21:41.082Z,3.09
2023-12-31T13:24:07.684Z,3.51
2023-12-31T13:26:34.286Z,3.78
2023-12-31T13:29:03.974Z,3.89
2023-12-31T13:31:31.450Z,4.08
2023-12-31T13:36:24.817Z,4.27
2023-12-31T13:38:51.443Z,4.33
2023-12-31T13:41:19.711Z,4.71
2023-12-31T13:43:48.439Z,4.91
2023-12-31T13:46:15.071Z,4.92
2023-12-31T13:48:41.707Z,4.74
2023-12-31T13:51:08.335Z,4.34
2023-12-31T13:53:34.913Z,4.13
2023-12-31T13:56:01.597Z,4.26
2023-12-31T13:58:28.271Z,4.26
2023-12-31T14:00:54.852Z,4.37
2023-12-31T14:03:21.477Z,4.71
2023-12-31T14:05:48.120Z,4.66
2023-12-31T14:08:14.747Z,4.85
2023-12-31T14:10:41.367Z,4.80
2023-12-31T14:13:07.985Z,4.84
2023-12-31T14:15:34.580Z,4.77
2023-12-31T14:18:01.307Z,4.78
2023-12-31T14:20:28.006Z,4.75
2023-12-31T14:22:54.659Z,4.63
2023-12-31T14:25:21.299Z,3.80
2023-12-31T14:27:47.920Z,3.68
2023-12-31T14:30:14.545Z,3.50
2023-12-31T14:32:43.979Z,3.27
2023-12-31T14:35:10.722Z,3.13
2023-12-31T14:37:37.421Z,3.42
2023-12-31T14:40:04.172Z,3.35
2023-12-31T14:42:30.766Z,3.17
2023-12-31T14:44:57.402Z,3.10
2023-12-31T14:47:24.049Z,3.34
2023-12-31T14:49:50.735Z,3.61
2023-12-31T14:52:17.382Z,3.93
2023-12-31T14:54:43.996Z,3.64
2023-12-31T14:57:10.613Z,3.64
2023-12-31T14:59:37.235Z,3.76
2023-12-31T15:02:03.906Z,3.71
2023-12-31T15:04:30.612Z,3.51
2023-12-31T15:06:57.270Z,3.38
2023-12-31T15:09:23.969Z,3.41
2023-12-31T15:11:50.752Z,3.59
2023-12-31T15:14:17.860Z,3.29
2023-12-31T15:16:44.604Z,3.30
2023-12-31T15:19:11.316Z,3.14
2023-12-31T15:21:37.997Z,3.18
2023-12-31T15:24:04.917Z,3.31
2023-12-31T15:26:31.534Z,3.16
2023-12-31T15:28:58.238Z,3.12
2023-12-31T15:31:25.000Z,3.30
2023-12-31T15:33:51.821Z,3.45
2023-12-31T15:36:18.467Z,2.90
2023-12-31T15:38:47.499Z,2.47
2023-12-31T15:41:15.485Z,2.40
2023-12-31T15:43:42.093Z,2.14
2023-12-31T15:46:08.744Z,2.17
2023-12-31T15:48:35.524Z,1.89
2023-12-31T15:51:02.163Z,2.27
2023-12-31T15:53:28.764Z,2.38
2023-12-31T15:55:55.452Z,2.36
2023-12-31T15:58:22.117Z,2.46
2023-12-31T16:00:48.761Z,2.38
2023-12-31T16:03:15.399Z,2.39
2023-12-31T16:05:42.065Z,2.36
2023-12-31T16:08:09.056Z,2.42
2023-12-31T16:10:36.035Z,2.29
2023-12-31T16:13:02.700Z,2.36
2023-12-31T16:15:29.278Z,2.41
2023-12-31T16:17:55.915Z,2.46
2023-12-31T16:20:22.632Z,2.54
2023-12-31T16:22:49.378Z,2.80
2023-12-31T16:25:16.003Z,2.90
2023-12-31T16:27:42.596Z,3.02
2023-12-31T16:30:09.241Z,2.88
2023-12-31T16:32:35.977Z,2.98
2023-12-31T16:35:02.696Z,2.90
2023-12-31T16:37:29.471Z,2.94
2023-12-31T16:39:56.180Z,3.12
2023-12-31T16:42:22.789Z,3.09
2023-12-31T16:44:49.488Z,3.26
2023-12-31T16:47:16.198Z,3.15
2023-12-31T16:49:42.832Z,2.93
2023-12-31T16:52:09.457Z,2.87
2023-12-31T16:54:36.081Z,3.05
2023-12-31T16:57:02.741Z,3.15
2023-12-31T16:59:29.349Z,2.77
2023-12-31T17:01:55.972Z,2.94
2023-12-31T17:04:22.742Z,2.79
2023-12-31T17:06:49.464Z,2.91
2023-12-31T17:09:16.180Z,3.07
2023-12-31T17:11:42.773Z,3.05
2023-12-31T17:14:09.430Z,3.12
2023-12-31T17:16:36.152Z,2.94
2023-12-31T17:19:02.814Z,2.84
2023-12-31T17:21:29.440Z,2.87
2023-12-31T17:23:56.020Z,2.67
2023-12-31T17:26:22.611Z,2.98
2023-12-31T17:28:49.233Z,2.93
2023-12-31T17:31:15.848Z,3.25
2023-12-31T17:33:42.482Z,3.33
2023-12-31T17:36:09.100Z,3.40
2023-12-31T17:38:35.718Z,3.61
2023-12-31T17:41:02.405Z,3.61
2023-12-31T17:43:29.040Z,3.49
2023-12-31T17:45:55.638Z,3.53
2023-12-31T17:48:22.346Z,3.47
2023-12-31T17:50:49.067Z,2.70
2023-12-31T17:53:15.669Z,2.96
2023-12-31T17:55:42.292Z,2.85
2023-12-31T17:58:08.894Z,2.97
2023-12-31T18:00:35.502Z,3.00
2023-12-31T18:03:02.170Z,3.22
2023-12-31T18:05:28.888Z,3.46
2023-12-31T18:07:55.577Z,3.59
2023-12-31T18:10:22.285Z,3.62
2023-12-31T18:12:48.968Z,3.44
2023-12-31T18:15:15.677Z,3.81
2023-12-31T18:17:42.285Z,3.55
2023-12-31T18:20:09.109Z,3.86
2023-12-31T18:22:35.839Z,3.03
2023-12-31T18:25:02.517Z,3.52
2023-12-31T18:27:29.132Z,3.84
2023-12-31T18:30:06.967Z,3.82
2023-12-31T18:32:38.271Z,3.33
2023-12-31T18:35:04.889Z,3.76
2023-12-31T18:37:31.539Z,3.67
2023-12-31T18:39:58.187Z,3.78
2023-12-31T18:42:24.779Z,3.97
2023-12-31T18:44:51.466Z,4.21
2023-12-31T18:47:18.057Z,4.16
2023-12-31T18:49:44.886Z,4.08
2023-12-31T18:52:11.508Z,4.04
2023-12-31T18:54:38.351Z,3.98
2023-12-31T18:57:04.931Z,3.65
2023-12-31T18:59:31.651Z,3.34
2023-12-31T19:01:58.332Z,3.47
2023-12-31T19:04:25.086Z,3.83
2023-12-31T19:06:51.816Z,3.36
2023-12-31T19:09:18.407Z,3.08
2023-12-31T19:11:45.042Z,3.36
2023-12-31T19:14:11.844Z,3.12
2023-12-31T19:16:38.579Z,3.32
2023-12-31T19:19:05.468Z,3.47
2023-12-31T19:21:32.261Z,3.35
2023-12-31T19:23:58.950Z,3.42
2023-12-31T19:26:25.559Z,3.39
2023-12-31T19:28:52.175Z,3.79
2023-12-31T19:31:18.779Z,4.16
2023-12-31T19:33:45.390Z,3.99
2023-12-31T19:36:12.030Z,4.22
2023-12-31T19:38:38.617Z,4.17
2023-12-31T19:41:05.356Z,4.26
2023-12-31T19:46:01.486Z,3.76
2023-12-31T19:48:28.138Z,3.69
2023-12-31T19:50:54.852Z,3.58
2023-12-31T19:53:22.269Z,3.54
2023-12-31T19:55:50.600Z,3.31
2023-12-31T19:58:17.261Z,3.13
2023-12-31T20:00:43.890Z,3.27
2023-12-31T20:03:10.510Z,3.34
2023-12-31T20:05:37.165Z,3.08
2023-12-31T20:08:03.987Z,3.21
2023-12-31T20:10:30.686Z,3.25
2023-12-31T20:12:57.324Z,3.24
2023-12-31T20:15:23.973Z,3.31
2023-12-31T20:17:50.830Z,3.10
2023-12-31T20:20:17.625Z,3.32
2023-12-31T20:22:44.287Z,3.07
2023-12-31T20:25:10.928Z,2.96
2023-12-31T20:27:37.545Z,2.96
2023-12-31T20:30:04.286Z,3.04
